EKRK/RKE METAR and TAF weather

Enter ICAO airport designator
Station Type Date Time Source
EKRK METAR 2020/02/20 23:50 UTC NOAA

EKRK 202350Z AUTO 31019G40KT 230V330 9999 -RA OVC010/// 05/03 Q0998


Station Type Date Time Source
EKRK Decoded METAR 2020/02/20 23:50 UTC NOAA

Koebenhavn / Roskilde, Denmark (EKRK) 55-35N 012-08E 44M
Feb 20, 2020 - 06:50 PM EST / 2020.02.20 2350 UTC
Wind: from the NW (310 degrees) at 22 MPH (19 KT) gusting to 46 MPH (40 KT) (direction variable):0
Visibility: greater than 7 mile(s):0
Sky conditions: overcast
Weather: light rain
Temperature: 41 F (5 C)
Dew Point: 37 F (3 C)
Relative Humidity: 86%
Pressure (altimeter): 29.47 in. Hg (0998 hPa)
ob: EKRK 202350Z AUTO 31019G40KT 230V330 9999 -RA OVC010/// 05/03 Q0998
cycle: 0

Station Type Date Time Source
EKRK TAF UTC NOAA

Error!

Example: see airport list